Time;durP1;ratioP1;P1;durP2;ratioP2;P2;SDS_P1;SDS_P2;PMS_P1;PMS_P2;Temp;Humidity;BMP_temperature;BMP_pressure;BME280_temperature;BME280_humidity;BME280_pressure;Samples;Min_cycle;Max_cycle;Signal;HPM_P1;HPM_P2
2022/07/31 00:01:14;;;;;;;8.60;2.75;;;21.50;63.80;;;;;;5112803;28;20101;-71
2022/07/31 00:03:40;;;;;;;5.80;2.85;;;21.50;63.80;;;;;;5112644;28;20386;-71
2022/07/31 00:06:07;;;;;;;2.75;2.55;;;21.50;64.00;;;;;;5112685;28;20011;-72
2022/07/31 00:08:33;;;;;;;4.53;3.00;;;21.50;64.00;;;;;;5111258;28;20172;-72
2022/07/31 00:10:59;;;;;;;6.93;2.72;;;21.50;64.10;;;;;;5111388;28;20024;-71
2022/07/31 00:13:25;;;;;;;3.95;2.92;;;21.40;64.10;;;;;;5110510;28;20034;-71
2022/07/31 00:15:50;;;;;;;3.72;2.72;;;21.40;64.30;;;;;;5112491;28;20036;-71
2022/07/31 00:18:16;;;;;;;4.03;2.65;;;21.40;64.40;;;;;;5112394;28;20034;-72
2022/07/31 00:20:43;;;;;;;4.20;2.90;;;21.40;64.50;;;;;;5112237;28;20019;-71
2022/07/31 00:23:09;;;;;;;4.63;2.72;;;21.40;64.70;;;;;;5112475;28;20024;-70
2022/07/31 00:25:35;;;;;;;3.53;2.72;;;21.40;64.80;;;;;;5112338;28;20080;-71
2022/07/31 00:28:01;;;;;;;2.88;2.45;;;21.40;64.70;;;;;;5112356;28;20023;-72
2022/07/31 00:30:27;;;;;;;4.80;3.13;;;21.30;64.70;;;;;;5111617;28;20035;-71
2022/07/31 00:32:53;;;;;;;5.38;3.03;;;21.30;64.70;;;;;;5109761;28;20073;-71
2022/07/31 00:35:19;;;;;;;6.10;3.10;;;21.30;64.80;;;;;;5110838;28;20019;-71
2022/07/31 00:37:45;;;;;;;9.35;3.53;;;21.30;65.00;;;;;;5112254;28;20030;-72
2022/07/31 00:40:14;;;;;;;4.05;2.92;;;21.30;65.10;;;;;;5111948;28;20023;-71
2022/07/31 00:42:40;;;;;;;4.78;3.30;;;21.30;65.20;;;;;;5110431;28;20431;-71
2022/07/31 00:45:07;;;;;;;7.18;3.13;;;21.30;65.20;;;;;;5106889;28;20054;-72
2022/07/31 00:47:33;;;;;;;5.03;3.08;;;21.30;65.30;;;;;;5112291;28;20012;-71
2022/07/31 00:49:59;;;;;;;3.42;2.75;;;21.30;65.40;;;;;;5112385;28;20103;-71
2022/07/31 00:52:24;;;;;;;7.72;3.13;;;21.30;65.40;;;;;;5110926;28;20406;-71
2022/07/31 00:54:50;;;;;;;5.18;3.05;;;21.30;65.40;;;;;;5112229;28;20516;-71
2022/07/31 00:57:16;;;;;;;4.50;2.92;;;21.40;65.50;;;;;;5111008;28;20102;-71
2022/07/31 00:59:42;;;;;;;3.28;2.88;;;21.40;65.30;;;;;;5112072;28;20028;-71
2022/07/31 01:02:08;;;;;;;6.90;2.70;;;21.30;65.00;;;;;;5110588;28;20020;-72
2022/07/31 01:04:34;;;;;;;3.20;2.83;;;21.30;64.90;;;;;;5110273;28;20079;-71
2022/07/31 01:07:00;;;;;;;3.33;2.88;;;21.40;65.00;;;;;;5112086;28;20553;-73
2022/07/31 01:09:26;;;;;;;4.80;2.97;;;21.40;64.70;;;;;;5110937;28;20019;-72
2022/07/31 01:12:11;;;;;;;5.20;3.13;;;21.40;64.40;;;;;;5110814;28;20132;-71
2022/07/31 01:14:47;;;;;;;3.83;3.08;;;21.40;64.30;;;;;;5109820;28;20115;-72
2022/07/31 01:17:14;;;;;;;6.50;3.20;;;21.40;64.50;;;;;;5110301;28;20011;-72
2022/07/31 01:19:45;;;;;;;3.53;2.85;;;21.40;64.70;;;;;;5112026;28;20023;-74
2022/07/31 01:22:38;;;;;;;4.03;2.97;;;21.40;64.50;;;;;;5109805;28;20035;-72
2022/07/31 01:25:16;;;;;;;3.28;2.90;;;21.40;64.20;;;;;;5111761;28;20355;-71
2022/07/31 01:28:00;;;;;;;4.50;3.05;;;21.40;64.00;;;;;;5111944;28;20461;-72
2022/07/31 01:30:42;;;;;;;4.35;2.80;;;21.40;63.50;;;;;;5109311;28;20024;-72
2022/07/31 01:33:13;;;;;;;6.45;2.97;;;21.40;63.50;;;;;;5107916;28;20073;-72
2022/07/31 01:35:46;;;;;;;3.97;2.90;;;21.40;63.80;;;;;;5111972;28;20044;-70
2022/07/31 01:38:20;;;;;;;3.35;2.70;;;21.40;63.50;;;;;;5109965;28;20030;-71
2022/07/31 01:40:59;;;;;;;2.55;2.35;;;21.40;63.60;;;;;;5108351;28;20034;-71
2022/07/31 01:43:31;;;;;;;3.55;3.10;;;21.40;63.80;;;;;;5112074;28;20024;-71
2022/07/31 01:45:59;;;;;;;4.97;3.05;;;21.40;63.40;;;;;;5115724;28;20073;-71
2022/07/31 01:48:26;;;;;;;4.10;2.83;;;21.40;63.10;;;;;;5114341;28;20024;-71
2022/07/31 01:50:54;;;;;;;4.55;2.72;;;21.50;63.50;;;;;;5114179;28;20028;-70
2022/07/31 01:53:21;;;;;;;7.88;3.38;;;21.40;63.60;;;;;;5115594;28;20529;-71
2022/07/31 01:55:51;;;;;;;4.32;2.67;;;21.50;63.50;;;;;;5111723;28;20486;-71
2022/07/31 01:58:19;;;;;;;3.78;2.95;;;21.50;63.40;;;;;;5115423;28;20531;-70
2022/07/31 02:00:47;;;;;;;3.20;2.90;;;21.50;63.40;;;;;;5115334;28;20023;-71
2022/07/31 02:03:15;;;;;;;2.85;2.55;;;21.50;63.40;;;;;;5114642;28;20384;-71
2022/07/31 02:05:42;;;;;;;3.22;2.92;;;21.50;63.40;;;;;;5115141;28;20028;-71
2022/07/31 02:08:11;;;;;;;5.45;2.60;;;21.50;63.40;;;;;;5114039;28;20489;-70
2022/07/31 02:10:38;;;;;;;4.85;3.00;;;21.60;63.50;;;;;;5113357;28;20016;-70
2022/07/31 02:13:05;;;;;;;3.30;2.53;;;21.60;63.40;;;;;;5115050;28;20030;-71
2022/07/31 02:15:32;;;;;;;6.00;3.13;;;21.60;63.00;;;;;;5115138;28;20019;-71
2022/07/31 02:17:59;;;;;;;2.97;2.67;;;21.60;62.90;;;;;;5115033;28;20028;-71
2022/07/31 02:20:29;;;;;;;4.05;2.67;;;21.60;62.90;;;;;;5115164;28;20488;-72
2022/07/31 02:22:56;;;;;;;6.85;3.22;;;21.60;62.90;;;;;;5115038;28;20030;-71
2022/07/31 02:25:23;;;;;;;6.85;2.75;;;21.60;63.00;;;;;;5114894;28;20016;-72
2022/07/31 02:27:49;;;;;;;3.72;2.88;;;21.60;62.70;;;;;;5114966;28;20019;-71
2022/07/31 02:30:16;;;;;;;3.13;2.83;;;21.60;62.60;;;;;;5114873;28;20396;-71
2022/07/31 02:32:45;;;;;;;4.78;2.85;;;21.60;62.60;;;;;;5114461;28;20102;-71
2022/07/31 02:35:14;;;;;;;8.07;2.92;;;21.60;62.80;;;;;;5113445;28;20401;-71
2022/07/31 02:37:41;;;;;;;4.47;2.58;;;21.60;62.80;;;;;;5113506;28;20373;-71
2022/07/31 02:40:09;;;;;;;5.53;2.70;;;21.60;63.00;;;;;;5112096;28;20054;-71
2022/07/31 02:42:35;;;;;;;3.50;2.72;;;21.60;63.30;;;;;;5113377;28;20103;-71
2022/07/31 02:45:01;;;;;;;3.05;2.50;;;21.60;63.50;;;;;;5112351;28;20032;-71
2022/07/31 02:47:31;;;;;;;7.38;3.05;;;21.60;63.50;;;;;;5114592;28;20023;-71
2022/07/31 02:49:57;;;;;;;3.88;2.63;;;21.60;63.20;;;;;;5113204;28;20027;-72
2022/07/31 02:52:24;;;;;;;3.85;2.95;;;21.60;63.20;;;;;;5113100;28;20034;-72
2022/07/31 02:54:51;;;;;;;3.13;2.70;;;21.60;63.50;;;;;;5113272;28;20027;-72
2022/07/31 02:57:17;;;;;;;4.97;2.92;;;21.60;63.30;;;;;;5114360;28;20015;-72
2022/07/31 02:59:43;;;;;;;3.15;2.50;;;21.50;62.90;;;;;;5114263;28;20041;-72
2022/07/31 03:02:09;;;;;;;4.80;3.28;;;21.50;63.10;;;;;;5114040;28;20019;-72
2022/07/31 03:04:35;;;;;;;5.32;3.10;;;21.50;63.10;;;;;;5094107;28;20489;-72
2022/07/31 03:07:01;;;;;;;3.90;2.67;;;21.50;63.10;;;;;;5094112;28;20032;-71
2022/07/31 03:09:29;;;;;;;4.05;2.90;;;21.50;63.20;;;;;;5093985;28;20027;-72
2022/07/31 03:11:56;;;;;;;3.55;2.85;;;21.50;63.30;;;;;;5094020;28;20107;-72
2022/07/31 03:14:23;;;;;;;3.42;3.13;;;21.40;63.30;;;;;;5092752;28;20432;-72
2022/07/31 03:16:51;;;;;;;3.92;3.28;;;21.40;63.40;;;;;;5092680;28;20085;-72
2022/07/31 03:19:19;;;;;;;7.00;3.17;;;21.30;63.30;;;;;;5093754;28;20099;-72
2022/07/31 03:21:46;;;;;;;3.63;2.80;;;21.30;64.10;;;;;;5093635;28;20062;-72
2022/07/31 03:24:12;;;;;;;2.92;2.63;;;21.30;63.40;;;;;;5094574;28;21654;-72
2022/07/31 03:26:38;;;;;;;4.63;3.20;;;21.20;63.50;;;;;;5113266;28;20376;-72
2022/07/31 03:29:04;;;;;;;5.32;3.00;;;21.30;63.70;;;;;;5113789;28;20027;-72
2022/07/31 03:31:30;;;;;;;3.30;3.00;;;21.20;63.70;;;;;;5100944;27;20081;-72
2022/07/31 03:33:56;;;;;;;3.47;3.17;;;21.20;64.00;;;;;;5110367;27;20044;-72
2022/07/31 03:36:22;;;;;;;5.05;3.30;;;21.20;64.00;;;;;;5112295;28;20039;-72
2022/07/31 03:38:48;;;;;;;4.68;3.42;;;21.10;64.20;;;;;;5113763;27;20085;-72
2022/07/31 03:41:14;;;;;;;5.40;3.95;;;21.10;64.40;;;;;;5113901;28;20024;-72
2022/07/31 03:43:42;;;;;;;6.28;3.17;;;21.10;64.60;;;;;;5113830;28;20091;-72
2022/07/31 03:46:09;;;;;;;4.38;3.50;;;21.00;64.80;;;;;;5113723;28;20020;-72
2022/07/31 03:48:35;;;;;;;5.50;3.42;;;21.00;64.90;;;;;;5102967;28;20036;-72
2022/07/31 03:51:01;;;;;;;4.50;3.13;;;20.90;64.90;;;;;;5093257;28;20053;-72
2022/07/31 03:53:30;;;;;;;3.45;2.92;;;20.90;65.10;;;;;;5093315;28;20024;-72
2022/07/31 03:55:57;;;;;;;5.82;3.45;;;20.90;65.30;;;;;;5093173;28;20472;-72
2022/07/31 03:58:24;;;;;;;5.53;3.63;;;20.80;65.40;;;;;;5092840;28;20039;-72
2022/07/31 04:00:50;;;;;;;6.53;3.80;;;20.80;65.70;;;;;;5093276;28;20024;-71
2022/07/31 04:03:16;;;;;;;4.47;3.10;;;20.70;65.90;;;;;;5091632;28;20056;-72
2022/07/31 04:05:42;;;;;;;4.57;3.33;;;20.70;65.90;;;;;;5092532;28;20101;-72
2022/07/31 04:08:09;;;;;;;7.25;3.40;;;20.70;66.00;;;;;;5091546;28;20021;-72
2022/07/31 04:10:36;;;;;;;4.45;3.30;;;20.70;66.30;;;;;;5092798;28;20062;-71
2022/07/31 04:13:03;;;;;;;3.85;3.22;;;20.70;66.40;;;;;;5092777;28;20027;-71
2022/07/31 04:15:29;;;;;;;8.07;3.42;;;20.70;66.50;;;;;;5092697;28;20496;-72
2022/07/31 04:17:54;;;;;;;3.72;3.13;;;20.70;66.80;;;;;;5104775;28;20031;-71
2022/07/31 04:20:20;;;;;;;5.10;3.65;;;20.60;66.70;;;;;;5113017;28;20076;-72
2022/07/31 04:22:47;;;;;;;6.47;3.60;;;20.60;66.80;;;;;;5112823;28;20043;-71
2022/07/31 04:25:13;;;;;;;7.18;3.55;;;20.70;67.00;;;;;;5111782;28;20103;-71
2022/07/31 04:27:39;;;;;;;5.40;3.42;;;20.60;67.20;;;;;;5111505;28;20119;-72
2022/07/31 04:30:05;;;;;;;4.00;3.33;;;20.60;67.10;;;;;;5113030;28;20476;-72
2022/07/31 04:32:31;;;;;;;5.63;3.50;;;20.60;67.20;;;;;;5107364;28;20024;-72
2022/07/31 04:34:57;;;;;;;6.05;3.33;;;20.70;67.30;;;;;;5110972;28;20049;-72
2022/07/31 04:37:22;;;;;;;6.35;3.50;;;20.70;67.30;;;;;;5110459;28;20023;-72
2022/07/31 04:39:48;;;;;;;4.15;3.50;;;20.70;67.30;;;;;;5109758;28;20023;-72
2022/07/31 04:42:14;;;;;;;5.68;3.95;;;20.70;68.10;;;;;;5093913;28;20028;-72
2022/07/31 04:44:40;;;;;;;7.03;3.75;;;20.70;67.30;;;;;;5092245;28;20095;-72
2022/07/31 04:47:06;;;;;;;7.18;3.50;;;20.70;67.10;;;;;;5091015;28;20179;-72
2022/07/31 04:49:33;;;;;;;5.35;3.55;;;20.70;67.10;;;;;;5092221;28;20517;-72
2022/07/31 04:51:59;;;;;;;4.20;3.17;;;20.70;67.10;;;;;;5092124;28;20032;-72
2022/07/31 04:54:26;;;;;;;6.75;3.53;;;20.70;67.10;;;;;;5092159;28;20046;-72
2022/07/31 04:56:52;;;;;;;4.53;3.35;;;20.70;67.20;;;;;;5091877;28;20103;-71
2022/07/31 04:59:19;;;;;;;7.20;4.30;;;20.70;67.20;;;;;;5092018;28;20050;-72
2022/07/31 05:01:46;;;;;;;5.88;3.50;;;20.80;67.20;;;;;;5092043;28;20028;-72
2022/07/31 05:04:12;;;;;;;5.47;3.78;;;20.80;67.10;;;;;;5091844;28;20050;-72
2022/07/31 05:06:40;;;;;;;5.93;3.78;;;20.80;67.10;;;;;;5091920;28;20020;-72
2022/07/31 05:09:08;;;;;;;4.53;4.13;;;20.80;66.90;;;;;;5090731;28;20035;-72
2022/07/31 05:11:34;;;;;;;4.80;4.05;;;20.80;66.80;;;;;;5091875;28;20100;-72
2022/07/31 05:14:02;;;;;;;6.38;3.70;;;20.90;66.70;;;;;;5110698;28;20038;-71
2022/07/31 05:16:28;;;;;;;16.65;4.35;;;20.90;66.70;;;;;;5109019;28;20043;-72
2022/07/31 05:18:54;;;;;;;6.68;3.63;;;20.90;66.50;;;;;;5114941;28;20437;-72
2022/07/31 05:21:21;;;;;;;5.68;3.53;;;21.00;66.50;;;;;;5114329;28;20044;-72
2022/07/31 05:23:48;;;;;;;8.70;4.53;;;21.00;66.50;;;;;;5116585;27;20024;-72
2022/07/31 05:26:15;;;;;;;4.10;3.40;;;21.10;66.30;;;;;;5116027;28;20544;-72
2022/07/31 05:28:41;;;;;;;5.53;4.30;;;21.10;65.70;;;;;;5113738;28;20028;-72
2022/07/31 05:31:08;;;;;;;5.30;4.15;;;21.10;66.30;;;;;;5116049;28;20031;-72
2022/07/31 05:33:34;;;;;;;6.18;3.75;;;21.10;65.50;;;;;;5114204;28;20038;-72
2022/07/31 05:36:00;;;;;;;8.48;4.00;;;21.10;65.60;;;;;;5114902;27;20480;-72
2022/07/31 05:38:26;;;;;;;4.35;3.33;;;21.10;65.60;;;;;;5116081;28;20425;-72
2022/07/31 05:40:52;;;;;;;8.75;4.25;;;21.20;65.60;;;;;;5116219;28;20380;-72
2022/07/31 05:43:18;;;;;;;8.32;4.00;;;21.20;65.10;;;;;;5114855;28;20016;-71
2022/07/31 05:45:45;;;;;;;3.80;3.47;;;21.20;65.00;;;;;;5116233;27;20035;-72
2022/07/31 05:48:12;;;;;;;5.30;3.90;;;21.30;65.10;;;;;;5115295;28;20023;-71
2022/07/31 05:50:42;;;;;;;6.40;3.88;;;21.30;64.80;;;;;;5113950;28;20024;-72
2022/07/31 05:53:10;;;;;;;7.18;3.70;;;21.30;64.40;;;;;;5115565;28;20007;-72
2022/07/31 05:55:37;;;;;;;7.80;3.90;;;21.40;64.60;;;;;;5115340;28;20024;-72
2022/07/31 05:58:02;;;;;;;5.53;4.13;;;21.40;64.30;;;;;;5114122;28;20376;-72
2022/07/31 06:00:29;;;;;;;5.97;4.03;;;21.50;64.20;;;;;;5115281;28;20019;-72
2022/07/31 06:02:55;;;;;;;6.43;3.53;;;21.50;64.10;;;;;;5113478;28;20019;-71
2022/07/31 06:05:21;;;;;;;6.15;4.10;;;21.50;63.60;;;;;;5113781;28;20041;-72
2022/07/31 06:07:49;;;;;;;7.05;4.05;;;21.60;63.20;;;;;;5114963;27;20020;-72
2022/07/31 06:10:15;;;;;;;5.70;4.20;;;21.60;62.90;;;;;;5114147;28;20050;-72
2022/07/31 06:12:41;;;;;;;4.70;3.75;;;21.70;62.70;;;;;;5115081;28;20020;-71
2022/07/31 06:15:07;;;;;;;6.65;4.35;;;21.70;62.30;;;;;;5115145;28;20031;-71
2022/07/31 06:17:32;;;;;;;4.88;3.88;;;21.70;62.10;;;;;;5115078;28;20023;-72
2022/07/31 06:19:58;;;;;;;7.05;3.42;;;21.80;62.10;;;;;;5114898;28;20114;-71
2022/07/31 06:22:24;;;;;;;8.07;4.10;;;21.80;62.30;;;;;;5114840;28;20100;-71
2022/07/31 06:24:50;;;;;;;7.50;4.25;;;21.90;61.70;;;;;;5114900;28;20016;-71
2022/07/31 06:27:16;;;;;;;5.82;3.65;;;21.90;61.70;;;;;;5113971;28;20464;-71
2022/07/31 06:29:42;;;;;;;4.00;3.70;;;22.00;61.40;;;;;;5113018;28;20020;-71
2022/07/31 06:32:08;;;;;;;4.68;4.03;;;22.00;61.40;;;;;;5113069;28;20102;-71
2022/07/31 06:34:34;;;;;;;6.82;3.83;;;22.00;61.50;;;;;;5114471;28;20153;-71
2022/07/31 06:36:59;;;;;;;4.15;3.75;;;22.10;61.40;;;;;;5114492;28;20024;-71
2022/07/31 06:39:25;;;;;;;4.90;4.25;;;22.20;61.00;;;;;;5112452;28;20028;-71
2022/07/31 06:41:52;;;;;;;5.22;4.10;;;22.20;60.80;;;;;;5112250;28;20380;-71
2022/07/31 06:44:19;;;;;;;9.15;4.50;;;22.20;61.10;;;;;;5113111;28;20024;-71
2022/07/31 06:46:46;;;;;;;7.00;4.15;;;22.30;60.80;;;;;;5111914;28;20016;-71
2022/07/31 06:49:12;;;;;;;4.00;3.60;;;22.40;61.30;;;;;;5114382;28;20549;-71
2022/07/31 06:51:38;;;;;;;6.30;3.45;;;22.40;61.30;;;;;;5114352;28;20051;-71
2022/07/31 06:54:06;;;;;;;6.43;4.70;;;22.50;61.20;;;;;;5111654;28;20069;-72
2022/07/31 06:56:33;;;;;;;8.43;4.82;;;22.60;60.50;;;;;;5113350;28;20102;-72
2022/07/31 06:58:59;;;;;;;5.85;4.25;;;22.60;60.10;;;;;;5113935;28;20055;-71
2022/07/31 07:01:26;;;;;;;5.65;3.95;;;22.70;59.50;;;;;;5113974;28;20030;-71
2022/07/31 07:03:52;;;;;;;7.45;4.22;;;22.80;59.80;;;;;;5108771;28;20485;-71
2022/07/31 07:06:18;;;;;;;5.72;4.40;;;22.80;59.40;;;;;;5112433;28;20046;-72
2022/07/31 07:08:44;;;;;;;6.03;4.07;;;22.90;59.10;;;;;;5113878;28;20015;-71
2022/07/31 07:11:10;;;;;;;6.63;4.40;;;22.90;59.00;;;;;;5111333;28;20569;-71
2022/07/31 07:13:35;;;;;;;7.57;4.07;;;23.00;58.60;;;;;;5113878;28;20047;-71
2022/07/31 07:16:01;;;;;;;8.70;4.53;;;23.00;58.50;;;;;;5114066;28;20055;-71
2022/07/31 07:18:27;;;;;;;8.93;4.68;;;23.10;58.50;;;;;;5113613;28;20547;-71
2022/07/31 07:20:53;;;;;;;6.30;4.57;;;23.10;58.60;;;;;;5113439;28;20039;-71
2022/07/31 07:23:20;;;;;;;7.65;4.20;;;23.20;58.30;;;;;;5119324;27;20103;-71
2022/07/31 07:25:46;;;;;;;5.57;4.15;;;23.20;58.40;;;;;;5123109;27;20060;-72
2022/07/31 07:28:13;;;;;;;6.18;4.22;;;23.30;58.30;;;;;;5123174;27;20023;-71
2022/07/31 07:30:38;;;;;;;4.88;4.00;;;23.30;58.00;;;;;;5120317;27;20024;-72
2022/07/31 07:33:04;;;;;;;4.60;3.90;;;23.40;57.70;;;;;;5106168;28;20031;-71
2022/07/31 07:35:31;;;;;;;5.90;4.30;;;23.40;58.00;;;;;;5113266;28;20020;-71
2022/07/31 07:37:56;;;;;;;5.78;4.15;;;23.50;57.80;;;;;;5113252;28;20031;-71
2022/07/31 07:40:23;;;;;;;8.90;3.97;;;23.50;58.00;;;;;;5110456;28;20032;-72
2022/07/31 07:42:49;;;;;;;6.20;3.70;;;23.60;58.00;;;;;;5113252;28;20019;-71
2022/07/31 07:45:15;;;;;;;5.07;3.90;;;23.60;57.90;;;;;;5113096;28;20012;-72
2022/07/31 07:47:41;;;;;;;6.97;4.38;;;23.70;57.60;;;;;;5111923;28;20016;-72
2022/07/31 07:50:09;;;;;;;5.35;3.42;;;23.70;57.50;;;;;;5112997;28;20012;-71
2022/07/31 07:52:35;;;;;;;4.45;4.00;;;23.80;57.60;;;;;;5110692;28;20019;-72
2022/07/31 07:55:02;;;;;;;5.38;3.90;;;23.80;57.70;;;;;;5111689;28;20054;-71
2022/07/31 07:57:28;;;;;;;6.88;4.32;;;23.90;57.30;;;;;;5112969;28;20039;-72
2022/07/31 07:59:54;;;;;;;4.60;3.75;;;24.00;57.30;;;;;;5112634;28;20118;-71
2022/07/31 08:02:20;;;;;;;4.70;4.25;;;24.00;57.10;;;;;;5109133;28;20448;-71
2022/07/31 08:04:47;;;;;;;6.13;4.38;;;24.10;56.80;;;;;;5105046;28;20465;-72
2022/07/31 08:07:13;;;;;;;4.65;3.88;;;24.10;56.60;;;;;;5103284;28;20582;-72
2022/07/31 08:09:38;;;;;;;8.32;4.30;;;24.10;56.50;;;;;;5111096;28;20032;-72
2022/07/31 08:12:04;;;;;;;6.78;3.90;;;24.20;56.70;;;;;;5110049;28;20032;-72
2022/07/31 08:14:30;;;;;;;7.22;3.72;;;24.30;56.50;;;;;;5109948;28;20042;-72
2022/07/31 08:16:56;;;;;;;4.82;3.97;;;24.30;56.20;;;;;;5112561;28;20023;-72
2022/07/31 08:19:22;;;;;;;3.95;3.55;;;24.40;56.30;;;;;;5112378;28;20604;-72
2022/07/31 08:21:47;;;;;;;3.92;3.53;;;24.40;55.80;;;;;;5112355;28;20069;-72
2022/07/31 08:24:15;;;;;;;5.70;3.70;;;24.50;56.00;;;;;;5112439;28;20461;-72
2022/07/31 08:29:25;;;;;;;6.07;3.80;;;24.60;55.60;;;;;;5111315;28;20096;-71
2022/07/31 08:31:51;;;;;;;8.50;3.60;;;24.70;55.10;;;;;;5112379;28;20024;-70
2022/07/31 08:34:17;;;;;;;3.90;3.17;;;24.70;54.70;;;;;;5109116;27;20434;-71
2022/07/31 08:36:43;;;;;;;5.95;3.38;;;24.80;55.00;;;;;;5111182;28;20030;-71
2022/07/31 08:39:09;;;;;;;3.65;3.33;;;24.90;54.70;;;;;;5112415;28;20032;-71
2022/07/31 08:41:39;;;;;;;5.75;3.50;;;24.90;54.00;;;;;;5109895;28;20031;-71
2022/07/31 08:44:09;;;;;;;5.05;3.72;;;25.00;53.80;;;;;;5112036;28;20115;-71
2022/07/31 08:46:37;;;;;;;5.05;3.40;;;25.00;53.60;;;;;;5110876;28;20019;-71
2022/07/31 08:49:04;;;;;;;3.10;2.80;;;25.10;52.90;;;;;;5111988;28;20065;-71
2022/07/31 08:51:34;;;;;;;4.10;3.40;;;25.10;52.80;;;;;;5110979;28;20023;-71
2022/07/31 08:54:05;;;;;;;4.70;2.95;;;25.20;53.00;;;;;;5110741;28;20504;-71
2022/07/31 08:56:34;;;;;;;4.95;3.45;;;25.20;52.70;;;;;;5107903;28;20027;-71
2022/07/31 08:59:00;;;;;;;5.15;2.72;;;25.20;52.20;;;;;;5110698;28;20019;-71
2022/07/31 09:01:27;;;;;;;3.30;2.85;;;25.30;51.80;;;;;;5110667;28;20024;-71
2022/07/31 09:03:53;;;;;;;3.10;2.80;;;25.40;52.30;;;;;;5111328;28;20031;-71
2022/07/31 09:06:19;;;;;;;4.50;3.72;;;25.50;52.20;;;;;;5110450;28;20464;-71
2022/07/31 09:08:45;;;;;;;6.43;3.55;;;25.50;51.40;;;;;;5108921;28;20062;-71
2022/07/31 09:11:14;;;;;;;6.45;3.28;;;25.50;50.90;;;;;;5111617;28;20755;-71
2022/07/31 09:13:51;;;;;;;4.38;3.13;;;25.60;51.40;;;;;;5111752;28;20024;-71
2022/07/31 09:16:17;;;;;;;6.72;3.60;;;25.60;51.10;;;;;;5110340;28;20063;-70
2022/07/31 09:18:42;;;;;;;4.75;3.05;;;25.70;51.70;;;;;;5112892;28;20070;-71
2022/07/31 09:21:08;;;;;;;4.97;3.17;;;25.80;51.00;;;;;;5111710;28;20052;-71
2022/07/31 09:23:45;;;;;;;4.13;3.35;;;25.80;51.00;;;;;;5113253;28;20024;-71
2022/07/31 09:26:10;;;;;;;7.22;3.13;;;25.90;51.30;;;;;;5113250;28;20023;-71
2022/07/31 09:28:39;;;;;;;3.40;3.10;;;25.90;51.30;;;;;;5113196;28;20390;-71
2022/07/31 09:31:07;;;;;;;4.47;3.08;;;26.00;50.80;;;;;;5113150;28;20028;-71
2022/07/31 09:33:33;;;;;;;4.13;2.95;;;26.00;51.00;;;;;;5109667;28;20446;-71
2022/07/31 09:36:01;;;;;;;4.18;2.75;;;26.10;49.70;;;;;;5111813;28;20032;-71
2022/07/31 09:38:38;;;;;;;2.80;2.45;;;26.20;50.10;;;;;;5111643;28;20085;-71
2022/07/31 09:41:11;;;;;;;5.00;3.10;;;26.20;48.00;;;;;;5112874;28;20107;-71
2022/07/31 09:43:38;;;;;;;3.42;2.72;;;26.20;44.90;;;;;;5111754;28;20019;-70
2022/07/31 09:46:05;;;;;;;4.10;2.35;;;26.30;45.90;;;;;;5113325;28;20015;-71
2022/07/31 09:48:31;;;;;;;4.28;2.60;;;26.30;45.30;;;;;;5112873;28;20099;-70
2022/07/31 09:50:59;;;;;;;2.70;2.47;;;26.40;45.60;;;;;;5110995;28;20470;-70
2022/07/31 09:53:27;;;;;;;2.72;2.40;;;26.40;45.10;;;;;;5092563;28;20063;-70
2022/07/31 09:55:55;;;;;;;2.65;2.22;;;26.50;45.70;;;;;;5092518;28;20031;-70
2022/07/31 09:58:22;;;;;;;6.50;2.55;;;26.50;45.70;;;;;;5092421;28;20035;-71
2022/07/31 10:00:51;;;;;;;3.85;2.42;;;26.60;45.20;;;;;;5091161;28;20031;-71
2022/07/31 10:03:18;;;;;;;2.97;2.60;;;26.70;45.20;;;;;;5108813;28;20026;-71
2022/07/31 10:05:46;;;;;;;3.08;2.50;;;26.70;44.30;;;;;;5116454;28;20024;-71
2022/07/31 10:08:16;;;;;;;3.35;2.60;;;26.80;45.10;;;;;;5116350;28;20107;-71
2022/07/31 10:10:46;;;;;;;2.70;2.50;;;26.80;45.60;;;;;;5116356;28;20027;-71
2022/07/31 10:13:14;;;;;;;3.67;2.50;;;26.90;46.40;;;;;;5106398;28;20019;-71
2022/07/31 10:15:44;;;;;;;5.68;2.90;;;26.90;45.70;;;;;;5097636;28;20504;-71
2022/07/31 10:18:10;;;;;;;3.72;2.58;;;27.00;45.30;;;;;;5099426;28;20016;-71
2022/07/31 10:20:38;;;;;;;6.55;2.75;;;27.10;45.80;;;;;;5115932;28;20019;-71
2022/07/31 10:23:22;;;;;;;3.75;2.83;;;27.10;45.30;;;;;;5116112;28;20027;-71
2022/07/31 10:25:53;;;;;;;2.85;2.47;;;27.20;45.80;;;;;;5116154;28;20027;-71
2022/07/31 10:28:20;;;;;;;6.10;2.55;;;27.30;45.80;;;;;;5116067;28;20024;-71
2022/07/31 10:30:47;;;;;;;3.50;2.97;;;27.20;45.80;;;;;;5108399;28;20016;-72
2022/07/31 10:33:13;;;;;;;5.43;2.95;;;27.30;45.90;;;;;;5095409;27;20381;-72
2022/07/31 10:35:49;;;;;;;5.50;3.20;;;27.30;45.50;;;;;;5094106;28;20025;-72
2022/07/31 10:38:24;;;;;;;3.72;3.30;;;27.30;45.70;;;;;;5095401;28;20158;-72
2022/07/31 10:41:30;;;;;;;4.10;3.40;;;27.40;46.30;;;;;;5108189;28;20374;-72
2022/07/31 10:44:04;;;;;;;4.72;3.22;;;27.50;45.40;;;;;;5114389;28;20016;-72
2022/07/31 10:46:32;;;;;;;3.20;2.90;;;27.50;44.80;;;;;;5110033;28;20480;-71
2022/07/31 10:48:59;;;;;;;4.20;2.88;;;27.60;44.10;;;;;;5107917;28;20043;-72
2022/07/31 10:51:25;;;;;;;3.40;3.03;;;27.60;43.60;;;;;;5095030;28;20024;-72
2022/07/31 10:54:00;;;;;;;4.85;2.80;;;27.60;44.30;;;;;;5106255;28;20079;-72
2022/07/31 10:56:26;;;;;;;5.28;3.10;;;27.70;44.80;;;;;;5115266;28;20023;-72
2022/07/31 10:58:55;;;;;;;3.17;2.80;;;27.70;42.90;;;;;;5103469;28;20073;-72
2022/07/31 11:01:22;;;;;;;8.15;3.30;;;27.80;43.40;;;;;;5094907;28;20024;-72
2022/07/31 11:03:52;;;;;;;4.10;2.83;;;27.90;44.00;;;;;;5106266;27;20043;-72
2022/07/31 11:06:20;;;;;;;7.78;3.20;;;27.90;43.00;;;;;;5106982;28;20056;-72
2022/07/31 11:08:48;;;;;;;4.72;3.45;;;28.00;42.60;;;;;;5115183;28;20033;-72
2022/07/31 11:11:14;;;;;;;3.38;2.78;;;28.00;41.40;;;;;;5114002;28;20164;-72
2022/07/31 11:13:56;;;;;;;4.03;3.03;;;27.90;41.90;;;;;;5113750;28;20727;-72
2022/07/31 11:16:22;;;;;;;7.82;3.45;;;27.90;41.60;;;;;;5112649;28;20023;-72
2022/07/31 11:19:05;;;;;;;7.28;2.75;;;27.80;38.70;;;;;;5112271;28;20508;-72
2022/07/31 11:21:34;;;;;;;3.63;2.92;;;27.70;40.00;;;;;;5113057;27;20374;-72
2022/07/31 11:24:00;;;;;;;2.78;2.17;;;27.70;39.80;;;;;;5113360;28;20027;-72
2022/07/31 11:26:26;;;;;;;3.88;2.72;;;27.60;41.60;;;;;;5111958;28;20027;-72
2022/07/31 11:28:52;;;;;;;3.55;3.13;;;27.60;42.00;;;;;;5113296;28;20030;-72
2022/07/31 11:31:18;;;;;;;3.58;2.70;;;27.60;41.90;;;;;;5111375;28;20395;-73
2022/07/31 11:33:45;;;;;;;5.72;2.80;;;27.60;41.30;;;;;;5111809;28;20020;-72
2022/07/31 11:36:13;;;;;;;4.32;2.90;;;27.60;39.20;;;;;;5113132;28;20019;-72
2022/07/31 11:38:40;;;;;;;4.15;2.88;;;27.60;39.70;;;;;;5112937;28;20027;-72
2022/07/31 11:41:07;;;;;;;3.70;2.58;;;27.70;39.20;;;;;;5113045;28;20424;-72
2022/07/31 11:43:33;;;;;;;6.22;2.90;;;27.80;40.20;;;;;;5111480;28;20026;-71
2022/07/31 11:45:59;;;;;;;3.38;2.80;;;27.90;38.70;;;;;;5111450;28;20020;-70
2022/07/31 11:48:26;;;;;;;4.45;2.97;;;27.90;39.30;;;;;;5112630;28;20556;-70
2022/07/31 11:50:52;;;;;;;4.35;2.80;;;28.00;38.80;;;;;;5112810;28;20027;-71
2022/07/31 11:53:19;;;;;;;4.05;2.58;;;28.10;38.20;;;;;;5112730;27;20024;-70
2022/07/31 11:55:47;;;;;;;12.50;2.45;;;28.10;38.30;;;;;;5112688;28;20043;-70
2022/07/31 11:58:15;;;;;;;9.40;2.83;;;28.30;38.90;;;;;;5110627;28;20008;-70
2022/07/31 12:00:53;;;;;;;4.07;2.38;;;28.30;39.30;;;;;;5112552;28;20353;-72
2022/07/31 12:03:25;;;;;;;6.03;2.50;;;28.40;39.30;;;;;;5110106;28;20062;-71
2022/07/31 12:05:51;;;;;;;6.60;2.60;;;28.50;38.40;;;;;;5112414;28;20023;-71
2022/07/31 12:08:18;;;;;;;2.60;2.28;;;28.60;38.30;;;;;;5112887;28;20376;-71
2022/07/31 12:10:45;;;;;;;6.50;2.65;;;28.70;38.40;;;;;;5108402;28;20381;-71
2022/07/31 12:13:16;;;;;;;4.63;2.80;;;28.80;38.50;;;;;;5111095;28;20015;-71
2022/07/31 12:16:09;;;;;;;4.63;3.20;;;29.00;38.90;;;;;;5108082;28;20016;-71
2022/07/31 12:18:57;;;;;;;3.72;3.05;;;29.10;39.20;;;;;;5110944;28;20028;-71
2022/07/31 12:21:38;;;;;;;4.18;2.55;;;29.20;38.90;;;;;;5111589;28;20040;-71
2022/07/31 12:24:12;;;;;;;4.07;2.40;;;29.30;39.00;;;;;;5108599;27;20019;-71
2022/07/31 12:26:41;;;;;;;;;;;29.30;38.30;;;;;;5111717;28;20418;-71
2022/07/31 12:29:11;;;;;;;7.13;2.80;;;29.30;39.40;;;;;;5109189;28;19969;-71
2022/07/31 12:31:46;;;;;;;5.22;2.70;;;29.30;38.10;;;;;;5108585;28;20035;-71
2022/07/31 12:34:30;;;;;;;2.80;2.13;;;29.30;38.60;;;;;;5109775;28;20065;-71
2022/07/31 12:37:00;;;;;;;2.65;2.05;;;29.40;38.60;;;;;;5106088;28;20038;-70
2022/07/31 12:39:26;;;;;;;5.15;2.58;;;29.40;38.60;;;;;;5107548;28;20028;-70
2022/07/31 12:41:52;;;;;;;2.90;2.15;;;29.50;38.20;;;;;;5106273;28;20023;-70
2022/07/31 12:44:19;;;;;;;3.42;2.30;;;29.50;37.40;;;;;;5108993;28;20405;-71
2022/07/31 12:46:45;;;;;;;6.38;2.00;;;29.60;37.20;;;;;;5108812;28;20047;-71
2022/07/31 12:49:11;;;;;;;2.58;2.00;;;29.70;36.90;;;;;;5109369;28;20087;-70
2022/07/31 12:51:36;;;;;;;4.15;2.80;;;29.80;35.80;;;;;;5109193;28;20048;-71
2022/07/31 12:54:04;;;;;;;3.50;2.13;;;29.90;34.80;;;;;;5111309;28;20081;-71